Time;durP1;ratioP1;P1;durP2;ratioP2;P2;SDS_P1;SDS_P2;PMS_P1;PMS_P2;Temp;Humidity;BMP_temperature;BMP_pressure;BME280_temperature;BME280_humidity;BME280_pressure;Samples;Min_cycle;Max_cycle;Signal;HPM_P1;HPM_P2
2022/05/25 00:01:04;;;;;;;14.95;9.73;;;28.50;99.90;;;;;;4148427;28;20501;-66
2022/05/25 00:03:13;;;;;;;15.27;8.52;;;28.50;99.90;;;;;;4128290;28;20501;-66
2022/05/25 00:05:23;;;;;;;113.50;95.15;;;28.60;99.90;;;;;;4131969;28;20054;-67
2022/05/25 00:07:34;;;;;;;140.35;107.32;;;28.50;99.90;;;;;;4131395;28;20054;-66
2022/05/25 00:09:39;;;;;;;109.28;83.68;;;28.60;99.90;;;;;;4131595;28;20050;-67
2022/05/25 00:11:44;;;;;;;73.10;55.65;;;28.60;99.90;;;;;;4162904;28;20045;-66
2022/05/25 00:13:55;;;;;;;64.75;46.88;;;28.60;99.90;;;;;;4132337;28;20066;-66
2022/05/25 00:16:02;;;;;;;36.45;27.63;;;28.60;99.90;;;;;;4147240;28;20041;-67
2022/05/25 00:18:08;;;;;;;35.15;22.42;;;28.70;99.90;;;;;;4157368;28;20088;-67
2022/05/25 00:20:17;;;;;;;21.08;13.93;;;28.70;99.90;;;;;;4131355;28;20051;-66
2022/05/25 00:22:42;;;;;;;17.50;11.55;;;28.60;99.90;;;;;;4154671;28;20156;-66
2022/05/25 00:24:48;;;;;;;21.92;11.95;;;28.70;99.90;;;;;;4146698;28;20041;-66
2022/05/25 00:27:06;;;;;;;18.45;10.48;;;28.70;99.90;;;;;;4148079;28;20046;-66
2022/05/25 00:29:21;;;;;;;20.92;11.45;;;28.80;99.90;;;;;;4146776;28;20042;-66
2022/05/25 00:31:44;;;;;;;17.38;9.65;;;28.90;99.90;;;;;;4141948;28;20041;-67
2022/05/25 00:34:08;;;;;;;20.23;11.02;;;28.90;99.90;;;;;;4131634;28;20476;-66
2022/05/25 00:36:13;;;;;;;18.42;10.15;;;28.90;99.90;;;;;;4156168;28;20101;-67
2022/05/25 00:38:19;;;;;;;18.45;9.90;;;28.90;99.90;;;;;;4148347;28;20112;-66
2022/05/25 00:40:43;;;;;;;19.08;10.90;;;29.00;99.90;;;;;;4148309;28;20573;-65
2022/05/25 00:42:48;;;;;;;19.80;11.77;;;29.00;99.90;;;;;;4141313;28;20046;-66
2022/05/25 00:44:57;;;;;;;13.48;9.38;;;29.10;99.90;;;;;;4146605;28;20038;-66
2022/05/25 00:47:04;;;;;;;15.45;10.70;;;29.20;99.90;;;;;;4147155;28;20608;-65
2022/05/25 00:49:24;;;;;;;16.65;8.95;;;29.30;99.90;;;;;;4126129;28;20070;-65
2022/05/25 00:51:39;;;;;;;13.90;8.23;;;29.30;99.90;;;;;;4141044;28;20050;-66
2022/05/25 00:54:02;;;;;;;17.02;7.43;;;29.30;99.90;;;;;;4132893;28;20088;-65
2022/05/25 00:56:12;;;;;;;14.95;7.28;;;29.40;99.90;;;;;;4126871;28;20473;-65
2022/05/25 00:58:22;;;;;;;11.52;6.63;;;29.50;99.90;;;;;;4124516;28;20066;-65
2022/05/25 01:00:29;;;;;;;14.27;7.50;;;29.60;99.90;;;;;;4122220;28;21015;-65
2022/05/25 01:02:38;;;;;;;14.27;7.13;;;29.70;99.90;;;;;;4139571;28;20513;-65
2022/05/25 01:04:43;;;;;;;12.23;6.78;;;29.70;99.90;;;;;;4135803;28;20088;-65
2022/05/25 01:07:01;;;;;;;12.25;7.03;;;29.80;99.90;;;;;;4138317;28;20054;-66
2022/05/25 01:09:17;;;;;;;14.93;7.05;;;29.80;99.90;;;;;;4140358;28;20141;-66
2022/05/25 01:11:41;;;;;;;14.52;7.30;;;30.00;99.90;;;;;;4139465;28;20054;-66
2022/05/25 01:13:58;;;;;;;14.45;7.10;;;30.10;99.90;;;;;;4134727;28;20128;-67
2022/05/25 01:16:25;;;;;;;11.95;6.65;;;30.10;99.90;;;;;;4150477;28;20038;-66
2022/05/25 01:18:45;;;;;;;16.83;6.85;;;30.10;99.90;;;;;;4140177;28;20041;-66
2022/05/25 01:20:54;;;;;;;14.43;6.03;;;30.10;99.90;;;;;;4132417;28;20069;-67
2022/05/25 01:23:24;;;;;;;12.85;5.75;;;30.20;99.90;;;;;;4138773;28;20054;-66
2022/05/25 01:25:47;;;;;;;11.32;5.72;;;30.00;99.90;;;;;;4138234;28;20415;-67
2022/05/25 01:27:52;;;;;;;13.25;6.05;;;30.10;99.90;;;;;;4140242;28;20050;-66
2022/05/25 01:30:09;;;;;;;12.48;6.07;;;30.20;99.90;;;;;;4102138;28;20114;-66
2022/05/25 01:32:28;;;;;;;12.40;5.47;;;30.30;99.90;;;;;;4136506;28;20168;-66
2022/05/25 01:34:47;;;;;;;12.07;5.72;;;30.40;99.90;;;;;;4116023;28;20074;-66
2022/05/25 01:37:16;;;;;;;14.68;5.65;;;30.40;99.90;;;;;;4136493;28;20074;-66
2022/05/25 01:39:31;;;;;;;17.70;6.18;;;30.40;99.90;;;;;;4141244;28;20081;-66
2022/05/25 01:41:51;;;;;;;13.38;6.22;;;30.40;99.90;;;;;;4120838;28;20053;-66
2022/05/25 01:44:09;;;;;;;10.80;6.20;;;30.40;99.90;;;;;;4100680;28;20054;-66
2022/05/25 01:46:21;;;;;;;11.80;6.07;;;30.50;99.90;;;;;;4118937;28;20085;-65
2022/05/25 01:48:26;;;;;;;13.68;5.60;;;30.60;99.90;;;;;;4127721;28;20153;-65
2022/05/25 01:50:44;;;;;;;12.20;5.93;;;30.60;99.90;;;;;;4139137;28;20041;-66
2022/05/25 01:52:52;;;;;;;11.35;5.85;;;30.60;99.90;;;;;;4112309;28;20514;-67
2022/05/25 01:55:02;;;;;;;12.10;5.93;;;30.70;99.90;;;;;;4125255;28;20129;-66
2022/05/25 01:57:10;;;;;;;12.75;5.90;;;30.80;99.90;;;;;;4126250;28;20050;-67
2022/05/25 01:59:32;;;;;;;11.57;6.30;;;31.00;99.90;;;;;;4118416;28;20050;-66
2022/05/25 02:04:22;;;;;;;12.48;5.40;;;30.90;99.80;;;;;;4139930;28;20073;-65
2022/05/25 02:06:43;;;;;;;13.93;6.65;;;31.00;99.90;;;;;;4146680;28;20069;-66
2022/05/25 02:09:13;;;;;;;11.68;6.22;;;31.00;99.90;;;;;;4140531;28;20057;-66
2022/05/25 02:11:27;;;;;;;13.55;5.95;;;31.10;99.90;;;;;;4140568;28;20076;-67
2022/05/25 02:13:51;;;;;;;14.80;6.45;;;31.10;99.80;;;;;;4132211;28;20033;-65
2022/05/25 02:16:16;;;;;;;13.90;6.60;;;31.00;99.90;;;;;;4149725;28;20049;-66
2022/05/25 02:18:42;;;;;;;13.23;6.35;;;31.20;99.90;;;;;;4157320;28;20061;-66
2022/05/25 02:21:08;;;;;;;16.67;5.85;;;31.40;99.80;;;;;;4143311;28;20045;-66
2022/05/25 02:23:22;;;;;;;13.20;5.97;;;31.40;99.00;;;;;;4134373;28;20065;-66
2022/05/25 02:25:28;;;;;;;;;;;31.50;99.00;;;;;;4135108;28;20870;-66
2022/05/25 02:27:54;;;;;;;16.20;6.00;;;31.60;99.30;;;;;;4141987;28;20292;-66
2022/05/25 02:30:07;;;;;;;13.90;6.32;;;31.60;99.30;;;;;;4134253;28;20046;-66
2022/05/25 02:32:25;;;;;;;9.98;5.50;;;31.70;98.70;;;;;;4112526;28;20043;-66
2022/05/25 02:34:32;;;;;;;11.20;5.20;;;31.70;98.60;;;;;;3278177;28;10000947;-66
2022/05/25 02:36:40;;;;;;;14.43;6.22;;;31.80;98.80;;;;;;4165469;28;20076;-67
2022/05/25 02:38:47;;;;;;;13.98;6.30;;;31.80;98.80;;;;;;4140492;28;20049;-67
2022/05/25 02:41:26;;;;;;;10.10;5.55;;;31.90;98.80;;;;;;4136610;28;20104;-66
2022/05/25 02:43:31;;;;;;;13.93;6.85;;;32.00;98.80;;;;;;4147257;28;20045;-67
2022/05/25 02:45:38;;;;;;;17.50;6.43;;;31.90;98.40;;;;;;4134119;28;20148;-67
2022/05/25 02:47:44;;;;;;;16.83;6.88;;;31.70;98.70;;;;;;4116600;28;20168;-66
2022/05/25 02:49:52;;;;;;;13.85;4.97;;;31.80;98.30;;;;;;4136684;28;20034;-67
2022/05/25 02:51:58;;;;;;;11.18;5.20;;;31.90;97.60;;;;;;4137434;28;20052;-67
2022/05/25 02:54:06;;;;;;;12.82;5.70;;;31.90;97.10;;;;;;4103338;28;20062;-66
2022/05/25 02:56:13;;;;;;;14.63;5.50;;;31.80;97.30;;;;;;4130166;28;20068;-67
2022/05/25 02:58:17;;;;;;;12.52;5.80;;;31.80;97.20;;;;;;4136755;28;20117;-67
2022/05/25 03:00:23;;;;;;;10.05;6.00;;;31.80;97.30;;;;;;4121052;28;20058;-67
2022/05/25 03:02:30;;;;;;;15.00;6.20;;;31.80;98.20;;;;;;4136860;28;20465;-67
2022/05/25 03:04:37;;;;;;;9.77;5.38;;;32.00;98.30;;;;;;4135512;28;20118;-67
2022/05/25 03:06:43;;;;;;;16.65;7.03;;;32.10;97.80;;;;;;4137243;28;20100;-67
2022/05/25 03:08:52;;;;;;;15.48;6.13;;;32.10;97.80;;;;;;4136858;28;20056;-67
2022/05/25 03:10:56;;;;;;;11.07;5.63;;;32.20;96.90;;;;;;4157245;28;20041;-67
2022/05/25 03:13:06;;;;;;;14.20;5.53;;;32.30;97.30;;;;;;4157720;28;20046;-67
2022/05/25 03:15:21;;;;;;;12.18;5.65;;;32.50;96.60;;;;;;4153727;28;20041;-67
2022/05/25 03:17:28;;;;;;;8.82;5.20;;;32.60;96.60;;;;;;4143867;28;20046;-67
2022/05/25 03:19:44;;;;;;;13.50;5.00;;;32.60;96.40;;;;;;4156044;28;20145;-66
2022/05/25 03:21:56;;;;;;;11.55;5.07;;;32.70;96.10;;;;;;4161166;28;20618;-67
2022/05/25 03:24:20;;;;;;;11.65;5.32;;;32.60;95.60;;;;;;4161112;28;20119;-67
2022/05/25 03:26:34;;;;;;;13.30;5.10;;;32.50;95.70;;;;;;4162375;28;20081;-67
2022/05/25 03:28:40;;;;;;;9.23;5.28;;;32.50;96.00;;;;;;4162008;28;20640;-67
2022/05/25 03:30:47;;;;;;;13.00;5.70;;;32.60;95.70;;;;;;4147964;28;20038;-67
2022/05/25 03:32:53;;;;;;;14.68;5.80;;;32.60;96.20;;;;;;4157812;28;20140;-68
2022/05/25 03:35:00;;;;;;;12.55;5.72;;;32.70;95.60;;;;;;4163316;28;20041;-67
2022/05/25 03:37:05;;;;;;;19.95;5.97;;;32.80;95.70;;;;;;4196298;28;20044;-67
2022/05/25 03:39:10;;;;;;;15.38;5.78;;;32.60;95.70;;;;;;4150884;28;20045;-67
2022/05/25 03:41:17;;;;;;;15.48;6.15;;;32.70;96.00;;;;;;4155699;28;20447;-67
2022/05/25 03:43:22;;;;;;;11.98;5.65;;;32.80;95.90;;;;;;4165366;28;20512;-67
2022/05/25 03:45:30;;;;;;;13.63;5.90;;;32.90;95.80;;;;;;4114746;28;20134;-66
2022/05/25 03:47:37;;;;;;;14.57;5.90;;;32.90;95.80;;;;;;4163408;28;20049;-66
2022/05/25 03:49:48;;;;;;;14.82;5.32;;;33.00;95.50;;;;;;4162192;28;20033;-67
2022/05/25 03:51:58;;;;;;;15.23;5.68;;;33.10;95.50;;;;;;4155060;28;20522;-67
2022/05/25 03:54:25;;;;;;;13.25;5.45;;;33.10;94.60;;;;;;4115338;28;20060;-67
2022/05/25 03:56:29;;;;;;;16.50;4.97;;;33.20;94.40;;;;;;4129097;28;20533;-67
2022/05/25 03:58:36;;;;;;;13.50;5.15;;;32.80;94.00;;;;;;4129497;28;20589;-67
2022/05/25 04:00:43;;;;;;;14.65;5.30;;;32.90;94.40;;;;;;4127504;28;20042;-67
2022/05/25 04:02:51;;;;;;;13.90;5.63;;;32.90;94.30;;;;;;4123766;28;20045;-67
2022/05/25 04:07:15;;;;;;;13.35;5.43;;;33.10;94.20;;;;;;4113682;28;20121;-67
2022/05/25 04:09:21;;;;;;;12.35;5.47;;;33.40;93.90;;;;;;4109728;28;20559;-67
2022/05/25 04:11:28;;;;;;;13.60;5.00;;;33.40;93.60;;;;;;4105419;28;20625;-67
2022/05/25 04:13:34;;;;;;;12.27;4.95;;;33.40;93.90;;;;;;4110011;28;20635;-67
2022/05/25 04:15:39;;;;;;;16.02;5.10;;;33.60;94.10;;;;;;4125400;28;20129;-67
2022/05/25 04:17:46;;;;;;;11.90;5.28;;;33.40;93.30;;;;;;4101029;28;20137;-67
2022/05/25 04:19:51;;;;;;;12.25;5.40;;;33.20;94.00;;;;;;4118902;28;20137;-67
2022/05/25 04:21:56;;;;;;;15.32;5.60;;;33.30;94.20;;;;;;4132202;28;20053;-67
2022/05/25 04:24:03;;;;;;;15.20;5.32;;;33.40;94.00;;;;;;4122325;28;20325;-67
2022/05/25 04:26:13;;;;;;;13.60;5.18;;;33.60;93.90;;;;;;4122044;28;20050;-67
2022/05/25 04:28:20;;;;;;;11.95;5.43;;;33.70;93.70;;;;;;4123987;28;20140;-67
2022/05/25 04:30:27;;;;;;;13.88;5.70;;;33.70;93.60;;;;;;4107785;28;20165;-67
2022/05/25 04:32:45;;;;;;;11.43;4.90;;;33.70;93.80;;;;;;4115631;28;20050;-66
2022/05/25 04:34:53;;;;;;;15.50;5.68;;;33.60;93.80;;;;;;4121978;28;20046;-67
2022/05/25 04:39:40;;;;;;;15.52;5.07;;;33.50;93.20;;;;;;4183545;28;20144;-67
2022/05/25 04:41:47;;;;;;;15.07;5.20;;;33.50;93.50;;;;;;4157202;28;20401;-67
2022/05/25 04:43:54;;;;;;;13.77;5.53;;;33.50;93.80;;;;;;4152483;28;20045;-67
2022/05/25 04:46:10;;;;;;;11.88;5.78;;;33.40;93.80;;;;;;4157107;28;20056;-67
2022/05/25 04:48:20;;;;;;;17.55;5.90;;;33.50;94.00;;;;;;4157703;28;20459;-67
2022/05/25 04:50:33;;;;;;;11.98;5.00;;;33.60;93.70;;;;;;4152547;28;20179;-67
2022/05/25 04:52:39;;;;;;;12.10;4.88;;;33.60;92.70;;;;;;4139083;28;20484;-67
2022/05/25 04:54:45;;;;;;;17.05;5.47;;;33.60;93.10;;;;;;4165306;28;20518;-67
2022/05/25 04:59:20;;;;;;;12.70;5.40;;;33.70;93.00;;;;;;4159454;28;20052;-67
2022/05/25 05:01:27;;;;;;;17.65;5.13;;;33.70;93.10;;;;;;4159682;28;20324;-67
2022/05/25 05:03:35;;;;;;;13.98;5.72;;;33.60;93.00;;;;;;4165994;28;20045;-67
2022/05/25 05:05:43;;;;;;;13.00;5.32;;;33.50;93.60;;;;;;4156037;28;20050;-67
2022/05/25 05:07:50;;;;;;;10.82;5.53;;;33.40;94.00;;;;;;4165095;28;20048;-67
2022/05/25 05:09:55;;;;;;;16.30;5.82;;;33.50;94.20;;;;;;4155603;28;20052;-67
2022/05/25 05:12:03;;;;;;;11.52;5.05;;;33.60;94.10;;;;;;4135006;28;20136;-66
2022/05/25 05:14:19;;;;;;;12.85;5.07;;;33.60;93.90;;;;;;4147968;28;20522;-67
2022/05/25 05:16:26;;;;;;;15.55;5.85;;;33.60;93.90;;;;;;4164383;28;20063;-66
2022/05/25 05:18:46;;;;;;;11.43;5.63;;;33.90;93.60;;;;;;4155906;28;20045;-66
2022/05/25 05:20:57;;;;;;;10.60;4.90;;;34.20;93.50;;;;;;4165207;28;20393;-66
2022/05/25 05:23:03;;;;;;;12.82;4.78;;;34.40;93.00;;;;;;4161895;28;20060;-67
2022/05/25 05:25:17;;;;;;;9.93;5.18;;;34.50;92.30;;;;;;4156173;28;20049;-67
2022/05/25 05:27:22;;;;;;;10.93;5.25;;;34.40;92.80;;;;;;4159195;28;20158;-67
2022/05/25 05:29:30;;;;;;;12.65;5.70;;;34.20;92.70;;;;;;4164974;28;20048;-66
2022/05/25 05:31:38;;;;;;;16.83;6.00;;;34.20;92.00;;;;;;4167072;28;20052;-68
2022/05/25 05:33:50;;;;;;;31.42;6.18;;;34.40;92.10;;;;;;4156607;28;20045;-67
2022/05/25 05:36:06;;;;;;;16.35;7.00;;;34.20;91.00;;;;;;4161913;28;20412;-67
2022/05/25 05:38:11;;;;;;;17.67;5.20;;;33.80;91.40;;;;;;4160889;28;20465;-66
2022/05/25 05:40:17;;;;;;;17.63;6.20;;;33.70;92.10;;;;;;4138751;28;20053;-67
2022/05/25 05:42:23;;;;;;;9.27;5.00;;;33.70;92.20;;;;;;4160443;28;20173;-67
2022/05/25 05:44:29;;;;;;;14.43;5.50;;;33.70;92.40;;;;;;4175113;28;20150;-67
2022/05/25 05:46:41;;;;;;;12.18;5.30;;;33.70;93.00;;;;;;4158899;28;20053;-66
2022/05/25 05:48:46;;;;;;;14.02;5.78;;;33.60;92.40;;;;;;4157299;28;20095;-67
2022/05/25 05:51:01;;;;;;;10.80;5.60;;;33.50;92.80;;;;;;4160466;28;20042;-67
2022/05/25 05:53:07;;;;;;;13.63;5.40;;;33.60;92.80;;;;;;4156385;28;20059;-67
2022/05/25 05:55:13;;;;;;;13.18;5.03;;;33.70;92.80;;;;;;4156470;28;20144;-67
2022/05/25 05:57:34;;;;;;;10.02;5.32;;;33.80;92.70;;;;;;4150798;28;20074;-67
2022/05/25 05:59:41;;;;;;;15.90;5.78;;;33.70;92.80;;;;;;4158653;28;20045;-67
2022/05/25 06:01:48;;;;;;;14.98;8.23;;;33.70;92.40;;;;;;4156890;28;20049;-67
2022/05/25 06:03:55;;;;;;;17.80;7.88;;;33.60;92.90;;;;;;4144905;28;20084;-67
2022/05/25 06:06:03;;;;;;;25.70;13.90;;;33.70;92.90;;;;;;4161644;28;20073;-67
2022/05/25 06:08:13;;;;;;;15.77;10.13;;;33.90;92.90;;;;;;4154256;28;20046;-67
2022/05/25 06:10:20;;;;;;;19.38;10.10;;;34.00;92.90;;;;;;4086668;28;20507;-67
2022/05/25 06:12:25;;;;;;;13.20;7.13;;;34.20;93.00;;;;;;4151045;28;20049;-67
2022/05/25 06:14:29;;;;;;;13.00;6.85;;;34.40;93.00;;;;;;4158296;28;20050;-67
2022/05/25 06:21:12;;;;;;;14.45;7.07;;;34.40;92.80;;;;;;4144695;28;20084;-67
2022/05/25 06:23:16;;;;;;;12.35;6.25;;;34.60;92.60;;;;;;4154274;28;20072;-66
2022/05/25 06:25:23;;;;;;;14.68;5.88;;;34.80;92.40;;;;;;4143058;28;20140;-67
2022/05/25 06:27:28;;;;;;;11.77;5.78;;;35.10;92.20;;;;;;4155181;28;20135;-67
2022/05/25 06:29:33;;;;;;;12.90;5.53;;;35.20;91.80;;;;;;4155422;28;20084;-67
2022/05/25 06:31:39;;;;;;;11.90;5.80;;;35.20;92.20;;;;;;4150090;28;20457;-66
2022/05/25 06:33:45;;;;;;;12.13;5.50;;;35.20;92.20;;;;;;4148856;28;20112;-67
2022/05/25 06:35:52;;;;;;;11.25;5.78;;;35.10;91.60;;;;;;4153836;28;20081;-66
2022/05/25 06:37:57;;;;;;;13.90;5.40;;;34.90;92.30;;;;;;4158118;28;20041;-67
2022/05/25 06:40:03;;;;;;;13.13;5.65;;;34.80;92.30;;;;;;4162207;28;20053;-67
2022/05/25 06:42:11;;;;;;;16.42;6.40;;;35.00;92.20;;;;;;4146009;28;20514;-67
2022/05/25 06:44:27;;;;;;;11.95;5.85;;;35.00;91.80;;;;;;4146963;28;20076;-67
2022/05/25 06:46:33;;;;;;;13.55;6.30;;;35.10;91.50;;;;;;4162777;28;20096;-67
2022/05/25 06:48:38;;;;;;;15.63;6.60;;;35.00;91.60;;;;;;4162116;28;20041;-67
2022/05/25 06:50:46;;;;;;;12.52;5.88;;;35.20;91.30;;;;;;4132980;28;20069;-67
2022/05/25 06:52:51;;;;;;;9.82;5.75;;;35.30;90.90;;;;;;4163089;28;20068;-67
2022/05/25 06:54:56;;;;;;;14.68;6.78;;;35.40;91.10;;;;;;4166842;28;20044;-67
2022/05/25 06:57:03;;;;;;;12.88;5.78;;;35.30;91.00;;;;;;4161467;28;20052;-67
2022/05/25 06:59:08;;;;;;;10.65;5.60;;;35.50;91.00;;;;;;4162360;28;20053;-67
2022/05/25 07:01:14;;;;;;;12.57;5.65;;;35.70;90.70;;;;;;4160846;28;20041;-68
2022/05/25 07:03:21;;;;;;;14.77;5.72;;;35.80;90.30;;;;;;4172078;28;20124;-67
2022/05/25 07:05:25;;;;;;;15.65;5.88;;;35.90;90.10;;;;;;4164019;28;20056;-66
2022/05/25 07:07:34;;;;;;;14.30;5.47;;;36.00;90.20;;;;;;4165981;28;20119;-67
2022/05/25 07:09:40;;;;;;;11.00;5.43;;;36.00;90.20;;;;;;4164795;28;20102;-66
2022/05/25 07:11:51;;;;;;;10.85;5.05;;;36.00;90.30;;;;;;4166141;28;20057;-66
2022/05/25 07:13:58;;;;;;;12.02;5.00;;;36.20;90.10;;;;;;4149487;28;20046;-66
2022/05/25 07:16:06;;;;;;;12.48;5.15;;;36.40;89.90;;;;;;4164423;28;20067;-66
2022/05/25 07:18:11;;;;;;;12.40;5.22;;;36.00;90.20;;;;;;4149658;28;20046;-67
2022/05/25 07:20:15;;;;;;;10.88;5.25;;;35.80;90.70;;;;;;4180661;28;20084;-66
2022/05/25 07:22:20;;;;;;;11.80;5.22;;;35.60;90.90;;;;;;4165895;28;20129;-66
2022/05/25 07:24:25;;;;;;;11.70;5.57;;;35.40;91.00;;;;;;4165422;28;20059;-67
2022/05/25 07:26:33;;;;;;;13.10;5.70;;;35.30;91.10;;;;;;4167122;28;20117;-67
2022/05/25 07:28:41;;;;;;;14.90;6.05;;;35.10;91.20;;;;;;4180359;28;20045;-66
2022/05/25 07:30:47;;;;;;;12.27;5.40;;;35.10;91.10;;;;;;4165134;28;20426;-66
2022/05/25 07:32:54;;;;;;;9.88;5.55;;;35.10;90.80;;;;;;4170924;28;20128;-67
2022/05/25 07:35:02;;;;;;;11.77;5.45;;;35.00;91.10;;;;;;4148354;28;20491;-66
2022/05/25 07:37:11;;;;;;;9.10;5.13;;;34.80;90.80;;;;;;4163363;28;20050;-66
2022/05/25 07:39:17;;;;;;;12.15;5.22;;;34.70;90.80;;;;;;4177185;28;20044;-67
2022/05/25 07:41:23;;;;;;;8.30;4.75;;;34.70;91.00;;;;;;4164615;28;20054;-66
2022/05/25 07:43:30;;;;;;;12.30;6.30;;;34.60;91.30;;;;;;4164222;28;20042;-66
2022/05/25 07:45:36;;;;;;;13.85;6.38;;;34.60;91.50;;;;;;4166347;28;20097;-66
2022/05/25 07:47:40;;;;;;;14.07;6.35;;;34.60;92.10;;;;;;4164274;28;20065;-67
2022/05/25 07:49:46;;;;;;;13.60;6.60;;;34.60;92.30;;;;;;4165369;28;20058;-66
2022/05/25 07:51:52;;;;;;;12.15;6.53;;;34.50;92.40;;;;;;4157601;28;20061;-67
2022/05/25 07:54:00;;;;;;;13.77;6.30;;;34.40;92.50;;;;;;4164237;28;20048;-67
2022/05/25 07:56:05;;;;;;;12.25;6.38;;;34.40;92.70;;;;;;4165397;28;20066;-66
2022/05/25 07:58:12;;;;;;;15.13;7.03;;;34.40;92.60;;;;;;4165309;28;20537;-66
2022/05/25 08:00:24;;;;;;;15.60;7.50;;;34.30;92.70;;;;;;4165184;28;20408;-67
2022/05/25 08:07:10;;;;;;;14.35;7.57;;;34.30;92.40;;;;;;4165451;28;20518;-66
2022/05/25 08:09:15;;;;;;;12.25;6.90;;;34.20;92.20;;;;;;4164935;28;20063;-67
2022/05/25 08:11:22;;;;;;;12.00;7.45;;;34.20;92.30;;;;;;4168770;28;20064;-65
2022/05/25 08:13:27;;;;;;;13.93;6.60;;;34.10;92.40;;;;;;4163961;28;20041;-66
2022/05/25 08:15:33;;;;;;;14.82;6.45;;;34.10;92.30;;;;;;4164233;28;20103;-67
2022/05/25 08:17:41;;;;;;;20.20;7.75;;;34.00;92.40;;;;;;4163950;28;20567;-67
2022/05/25 08:19:46;;;;;;;21.40;7.70;;;33.80;93.90;;;;;;4166771;28;20051;-68
2022/05/25 08:21:55;;;;;;;23.35;10.00;;;33.20;94.60;;;;;;4165021;28;20049;-68
2022/05/25 08:24:00;;;;;;;19.63;10.55;;;33.10;99.30;;;;;;4164969;28;20131;-67
2022/05/25 08:26:07;;;;;;;20.92;9.77;;;32.90;98.70;;;;;;4164822;28;20510;-67
2022/05/25 08:28:12;;;;;;;27.45;12.02;;;32.70;99.40;;;;;;4164845;28;20065;-67
2022/05/25 08:30:19;;;;;;;23.70;10.40;;;32.60;99.00;;;;;;4169220;28;20208;-67
2022/05/25 08:32:27;;;;;;;19.40;9.60;;;32.50;99.60;;;;;;4147691;28;20121;-67
2022/05/25 08:34:32;;;;;;;21.92;10.65;;;32.50;99.60;;;;;;4164708;28;20088;-67
2022/05/25 08:36:48;;;;;;;23.58;11.05;;;32.50;99.90;;;;;;4170829;28;20819;-70
2022/05/25 08:38:55;;;;;;;25.38;11.07;;;32.40;99.90;;;;;;4171028;28;20136;-69
2022/05/25 08:41:00;;;;;;;17.58;8.77;;;32.20;99.90;;;;;;4163951;28;20393;-68
2022/05/25 08:43:25;;;;;;;16.38;8.18;;;31.90;99.90;;;;;;4163389;28;20083;-67
2022/05/25 08:45:38;;;;;;;18.63;7.97;;;31.60;99.90;;;;;;4164429;28;20049;-67
2022/05/25 08:47:50;;;;;;;21.80;6.93;;;31.00;99.90;;;;;;4167636;28;20049;-67
2022/05/25 08:49:57;;;;;;;18.65;7.40;;;30.30;99.90;;;;;;4148730;28;20610;-67
2022/05/25 08:52:07;;;;;;;7.53;3.88;;;30.20;99.90;;;;;;4147027;28;20038;-67
2022/05/25 08:54:11;;;;;;;8.05;3.80;;;30.00;99.90;;;;;;4156620;28;20041;-67
2022/05/25 08:56:31;;;;;;;7.05;3.80;;;29.60;99.90;;;;;;4147435;28;20045;-66
2022/05/25 08:58:49;;;;;;;6.47;3.72;;;29.60;99.90;;;;;;4163181;28;20041;-66
2022/05/25 09:00:54;;;;;;;6.03;3.50;;;29.90;99.90;;;;;;4163004;28;20128;-68
2022/05/25 09:03:10;;;;;;;9.07;4.45;;;29.80;99.90;;;;;;4172928;28;20096;-67
2022/05/25 09:05:30;;;;;;;11.85;4.97;;;29.80;99.90;;;;;;4156304;28;20459;-67
2022/05/25 09:08:00;;;;;;;10.85;4.30;;;29.50;99.90;;;;;;4176592;28;20032;-67
2022/05/25 09:10:07;;;;;;;6.65;3.72;;;29.80;99.90;;;;;;4163039;28;20060;-67
2022/05/25 09:12:29;;;;;;;9.90;4.13;;;30.10;99.90;;;;;;4171138;28;20037;-68
2022/05/25 09:14:44;;;;;;;8.88;4.38;;;30.30;99.90;;;;;;4158809;28;20084;-68
2022/05/25 09:16:52;;;;;;;7.28;3.70;;;30.40;99.90;;;;;;4114454;28;20050;-67
2022/05/25 09:19:06;;;;;;;7.38;3.97;;;30.40;99.90;;;;;;4145510;28;20501;-68
2022/05/25 09:21:11;;;;;;;5.93;3.70;;;30.50;99.90;;;;;;4145697;28;20054;-67
2022/05/25 09:23:18;;;;;;;5.32;3.45;;;30.50;99.90;;;;;;4129484;28;20169;-67
2022/05/25 09:25:24;;;;;;;7.63;4.10;;;30.40;99.90;;;;;;4145169;28;20057;-68
2022/05/25 09:27:38;;;;;;;8.20;3.88;;;30.40;99.90;;;;;;4144993;28;20053;-66
2022/05/25 09:29:45;;;;;;;8.65;3.90;;;30.30;99.90;;;;;;4145352;28;20077;-67
2022/05/25 09:32:04;;;;;;;6.95;4.03;;;30.30;99.90;;;;;;4145664;28;20073;-67
2022/05/25 09:34:13;;;;;;;6.25;3.75;;;30.20;99.90;;;;;;4138080;28;20041;-65
2022/05/25 09:36:40;;;;;;;13.52;4.65;;;30.20;99.90;;;;;;4144972;28;20060;-66
2022/05/25 09:38:54;;;;;;;8.30;4.20;;;30.00;99.90;;;;;;4145308;28;20042;-66
2022/05/25 09:41:06;;;;;;;6.78;3.85;;;30.00;99.90;;;;;;4144749;28;20064;-67
2022/05/25 09:43:17;;;;;;;8.82;4.43;;;29.90;99.90;;;;;;4145579;28;20065;-67
2022/05/25 09:45:25;;;;;;;9.98;5.10;;;29.80;99.90;;;;;;4145274;28;20053;-67
2022/05/25 09:47:41;;;;;;;8.25;4.20;;;29.90;99.90;;;;;;4145167;28;20052;-66
2022/05/25 09:49:49;;;;;;;11.82;5.45;;;29.80;99.90;;;;;;4149614;28;20037;-67
2022/05/25 09:51:56;;;;;;;9.25;5.25;;;29.80;99.90;;;;;;4160904;28;20064;-67
2022/05/25 09:54:15;;;;;;;11.77;5.45;;;29.70;99.90;;;;;;4161020;28;20067;-67
2022/05/25 09:56:23;;;;;;;11.40;7.00;;;29.70;99.90;;;;;;4128311;28;20117;-68
2022/05/25 09:58:36;;;;;;;10.45;7.60;;;29.70;99.90;;;;;;4158825;28;20469;-67
2022/05/25 10:00:44;;;;;;;12.75;8.50;;;29.70;99.90;;;;;;4158723;28;20442;-65
2022/05/25 10:03:03;;;;;;;13.55;7.18;;;29.50;99.90;;;;;;4176486;28;20041;-67
2022/05/25 10:05:14;;;;;;;15.25;8.07;;;29.20;99.90;;;;;;4161913;28;20052;-67
2022/05/25 10:07:33;;;;;;;20.93;11.07;;;28.90;99.90;;;;;;3580078;28;10001311;-67
2022/05/25 10:09:45;;;;;;;16.45;7.95;;;28.70;99.90;;;;;;4169742;28;20091;-68
2022/05/25 10:11:52;;;;;;;14.07;7.35;;;28.30;99.90;;;;;;3298468;28;10001002;-66
2022/05/25 10:13:57;;;;;;;15.20;7.65;;;28.60;99.90;;;;;;4144611;28;20124;-67
2022/05/25 10:16:36;;;;;;;17.83;7.33;;;28.60;99.90;;;;;;3338528;28;10001908;-67
2022/05/25 10:18:43;;;;;;;15.60;8.60;;;28.60;99.90;;;;;;4139598;28;20493;-68
2022/05/25 10:20:48;;;;;;;14.63;7.50;;;28.30;99.90;;;;;;4142621;28;20509;-66
2022/05/25 10:23:08;;;;;;;15.25;8.18;;;28.30;99.90;;;;;;4131111;28;20084;-68
2022/05/25 10:25:27;;;;;;;12.13;7.50;;;28.70;99.90;;;;;;4115318;28;20047;-67
2022/05/25 10:27:40;;;;;;;13.13;7.55;;;28.80;99.90;;;;;;4125506;28;20778;-67
2022/05/25 10:36:58;;;;;;;12.98;6.63;;;29.00;99.90;;;;;;4113869;28;20054;-65
2022/05/25 10:39:29;;;;;;;10.02;6.35;;;29.10;99.90;;;;;;4129785;28;20046;-67
2022/05/25 10:41:37;;;;;;;12.88;5.50;;;29.00;99.90;;;;;;4142359;28;20129;-66
2022/05/25 10:43:42;;;;;;;37.97;29.65;;;28.70;99.90;;;;;;4125080;28;20046;-66
2022/05/25 10:45:51;;;;;;;34.15;25.20;;;28.70;99.90;;;;;;4140437;28;20129;-66
2022/05/25 10:48:08;;;;;;;22.02;14.52;;;28.80;99.90;;;;;;4139066;28;20069;-66
2022/05/25 10:50:21;;;;;;;18.02;10.88;;;28.90;99.90;;;;;;4141367;28;20037;-66
2022/05/25 10:52:32;;;;;;;10.82;8.00;;;28.90;99.90;;;;;;4139252;28;20096;-66
2022/05/25 10:57:25;;;;;;;12.50;8.23;;;29.00;99.90;;;;;;4146498;28;20141;-68
2022/05/25 10:59:45;;;;;;;14.00;9.25;;;28.90;99.90;;;;;;4133115;28;20077;-67
2022/05/25 11:01:58;;;;;;;13.98;8.20;;;28.90;99.90;;;;;;4134966;28;20081;-66
2022/05/25 11:04:19;;;;;;;14.32;9.48;;;28.70;99.90;;;;;;4134641;28;20058;-66
2022/05/25 11:06:34;;;;;;;14.13;9.40;;;28.70;99.90;;;;;;4134997;28;20461;-67
2022/05/25 11:08:42;;;;;;;11.38;7.30;;;28.70;99.90;;;;;;4142531;28;20495;-67
2022/05/25 11:11:07;;;;;;;12.07;7.15;;;28.50;99.90;;;;;;4135246;28;20053;-67
2022/05/25 11:13:27;;;;;;;10.57;6.93;;;28.50;99.90;;;;;;4131675;28;20061;-68
2022/05/25 11:15:45;;;;;;;10.80;6.63;;;28.70;99.90;;;;;;4156290;28;20053;-68
2022/05/25 11:18:10;;;;;;;10.57;7.28;;;28.80;99.90;;;;;;4135584;28;20049;-68
2022/05/25 11:20:30;;;;;;;9.88;6.88;;;28.70;99.90;;;;;;4135778;28;20375;-68
2022/05/25 11:22:41;;;;;;;11.38;7.25;;;28.70;99.90;;;;;;4136050;28;20100;-71
2022/05/25 11:25:00;;;;;;;9.85;6.90;;;28.70;99.90;;;;;;4136629;28;20388;-68
2022/05/25 11:27:21;;;;;;;10.63;6.57;;;28.70;99.90;;;;;;4131053;28;20058;-67
2022/05/25 11:29:41;;;;;;;12.98;6.85;;;28.70;99.90;;;;;;4141603;28;20084;-67
2022/05/25 11:32:12;;;;;;;11.02;6.90;;;28.70;99.90;;;;;;4138735;28;20421;-66
2022/05/25 11:34:38;;;;;;;13.55;6.65;;;28.80;99.90;;;;;;4128730;28;20043;-66
2022/05/25 11:37:11;;;;;;;8.68;6.05;;;28.80;99.90;;;;;;4135638;28;20077;-68
2022/05/25 11:39:16;;;;;;;;;;;28.80;99.90;;;;;;4128262;28;20217;-66
2022/05/25 11:41:29;;;;;;;9.80;5.82;;;28.90;99.90;;;;;;4143070;28;19928;-68
2022/05/25 11:43:53;;;;;;;9.65;5.40;;;28.80;99.90;;;;;;4140459;28;20041;-67